Time;durP1;ratioP1;P1;durP2;ratioP2;P2;SDS_P1;SDS_P2;PMS_P1;PMS_P2;Temp;Humidity;BMP_temperature;BMP_pressure;BME280_temperature;BME280_humidity;BME280_pressure;Samples;Min_cycle;Max_cycle;Signal;HPM_P1;HPM_P2
2023/08/13 00:01:50;;;;;;;1.38;1.27;;;;;;;;;;4967443;28;20045;-76
2023/08/13 00:04:15;;;;;;;1.83;1.73;;;;;;;;;;4967314;28;20044;-76
2023/08/13 00:06:40;;;;;;;1.35;1.25;;;;;;;;;;4955512;28;20124;-76
2023/08/13 00:09:06;;;;;;;6.03;1.40;;;;;;;;;;4968407;28;20133;-76
2023/08/13 00:11:32;;;;;;;1.65;1.55;;;;;;;;;;4957903;28;20034;-76
2023/08/13 00:13:58;;;;;;;1.50;1.40;;;;;;;;;;4962326;28;20738;-76
2023/08/13 00:16:23;;;;;;;1.98;1.88;;;;;;;;;;4962805;28;20035;-75
2023/08/13 00:18:48;;;;;;;1.92;1.50;;;;;;;;;;4963207;28;20125;-76
2023/08/13 00:21:14;;;;;;;3.20;2.55;;;;;;;;;;4952399;28;20398;-75
2023/08/13 00:23:39;;;;;;;1.67;1.58;;;;;;;;;;4967279;28;20043;-75
2023/08/13 00:26:05;;;;;;;1.92;1.80;;;;;;;;;;4938883;28;20046;-75
2023/08/13 00:28:30;;;;;;;3.28;2.97;;;;;;;;;;4960508;28;20074;-75
2023/08/13 00:30:55;;;;;;;2.05;1.80;;;;;;;;;;4966911;28;20419;-76
2023/08/13 00:33:21;;;;;;;2.50;2.25;;;;;;;;;;4970497;28;20034;-76
2023/08/13 00:35:49;;;;;;;2.17;1.70;;;;;;;;;;4937900;28;20423;-76
2023/08/13 00:38:14;;;;;;;2.50;2.30;;;;;;;;;;4963346;28;20038;-76
2023/08/13 00:40:39;;;;;;;3.20;2.60;;;;;;;;;;4939629;28;20037;-77
2023/08/13 00:43:05;;;;;;;2.15;1.52;;;;;;;;;;4969180;28;20124;-76
2023/08/13 00:45:33;;;;;;;2.05;1.90;;;;;;;;;;4966002;28;20038;-76
2023/08/13 00:47:59;;;;;;;1.80;1.70;;;;;;;;;;4939199;28;20030;-76
2023/08/13 00:50:25;;;;;;;3.00;2.60;;;;;;;;;;4963577;28;20042;-76
2023/08/13 00:52:51;;;;;;;1.88;1.42;;;;;;;;;;4972588;28;20569;-77
2023/08/13 00:55:17;;;;;;;1.80;1.70;;;;;;;;;;4955082;28;20042;-76
2023/08/13 00:57:42;;;;;;;1.75;1.65;;;;;;;;;;4943777;28;20439;-76
2023/08/13 01:00:10;;;;;;;3.10;2.85;;;;;;;;;;4939246;28;20066;-76
2023/08/13 01:02:36;;;;;;;1.60;1.50;;;;;;;;;;4957798;28;20046;-75
2023/08/13 01:05:03;;;;;;;1.60;1.50;;;;;;;;;;4962181;28;20041;-75
2023/08/13 01:07:29;;;;;;;2.30;2.13;;;;;;;;;;4959659;28;20046;-74
2023/08/13 01:10:40;;;;;;;2.40;2.20;;;;;;;;;;4951139;28;20113;-75
2023/08/13 01:13:08;;;;;;;1.95;1.77;;;;;;;;;;4947979;28;20086;-75
2023/08/13 01:15:37;;;;;;;2.50;2.30;;;;;;;;;;4967200;28;20041;-75
2023/08/13 01:18:03;;;;;;;2.22;2.03;;;;;;;;;;4961171;28;20594;-75
2023/08/13 01:20:34;;;;;;;1.60;1.50;;;;;;;;;;4975786;28;20046;-74
2023/08/13 01:22:59;;;;;;;2.15;1.70;;;;;;;;;;4977622;28;20124;-75
2023/08/13 01:25:26;;;;;;;1.75;1.65;;;;;;;;;;4977192;28;20090;-75
2023/08/13 01:28:19;;;;;;;1.60;1.50;;;;;;;;;;4974486;28;20470;-75
2023/08/13 01:30:52;;;;;;;2.45;2.25;;;;;;;;;;4958410;28;20244;-75
2023/08/13 01:33:27;;;;;;;2.47;1.70;;;;;;;;;;4969773;28;20018;-75
2023/08/13 01:35:56;;;;;;;1.83;1.73;;;;;;;;;;4964119;28;20094;-74
2023/08/13 01:38:23;;;;;;;1.80;1.65;;;;;;;;;;4968794;28;20105;-74
2023/08/13 01:40:49;;;;;;;4.07;2.28;;;;;;;;;;4964583;28;20023;-74
2023/08/13 01:43:15;;;;;;;3.17;2.38;;;;;;;;;;4970619;28;20047;-73
2023/08/13 01:45:40;;;;;;;2.08;1.88;;;;;;;;;;4971214;28;20161;-73
2023/08/13 01:48:06;;;;;;;2.00;1.85;;;;;;;;;;4963097;28;20101;-74
2023/08/13 01:50:31;;;;;;;1.70;1.60;;;;;;;;;;4965747;28;20046;-74
2023/08/13 01:52:57;;;;;;;2.90;2.60;;;;;;;;;;4969110;28;20045;-74
2023/08/13 01:55:22;;;;;;;2.53;2.33;;;;;;;;;;4968336;28;20126;-74
2023/08/13 01:57:48;;;;;;;3.40;3.05;;;;;;;;;;4968770;28;20094;-74
2023/08/13 02:00:13;;;;;;;3.28;2.97;;;;;;;;;;4964793;28;20033;-74
2023/08/13 02:02:39;;;;;;;2.50;2.30;;;;;;;;;;4965617;28;20411;-75
2023/08/13 02:05:05;;;;;;;3.35;2.65;;;;;;;;;;4968004;28;20117;-75
2023/08/13 02:07:31;;;;;;;3.35;3.05;;;;;;;;;;4967247;28;20435;-75
2023/08/13 02:10:04;;;;;;;3.45;3.15;;;;;;;;;;4956824;28;20029;-75
2023/08/13 02:12:29;;;;;;;2.67;2.47;;;;;;;;;;4962884;28;20109;-74
2023/08/13 02:14:55;;;;;;;3.22;2.92;;;;;;;;;;4962677;28;20484;-75
2023/08/13 02:17:20;;;;;;;3.30;2.95;;;;;;;;;;4967123;28;20022;-74
2023/08/13 02:19:46;;;;;;;4.00;3.65;;;;;;;;;;4964541;28;20030;-75
2023/08/13 02:22:11;;;;;;;3.55;2.65;;;;;;;;;;4966386;28;20045;-75
2023/08/13 02:24:37;;;;;;;2.53;2.33;;;;;;;;;;4962516;28;20076;-75
2023/08/13 02:27:02;;;;;;;2.72;2.53;;;;;;;;;;4967477;28;20035;-75
2023/08/13 02:29:28;;;;;;;2.80;2.60;;;;;;;;;;4967296;28;20475;-75
2023/08/13 02:31:53;;;;;;;2.95;2.60;;;;;;;;;;4968376;28;20082;-75
2023/08/13 02:34:18;;;;;;;2.95;2.75;;;;;;;;;;4960421;28;20031;-75
2023/08/13 02:36:44;;;;;;;3.55;3.20;;;;;;;;;;4969962;28;20027;-75
2023/08/13 02:39:09;;;;;;;3.17;2.92;;;;;;;;;;4967211;28;20029;-75
2023/08/13 02:41:34;;;;;;;3.78;3.10;;;;;;;;;;4967729;28;20029;-74
2023/08/13 02:44:00;;;;;;;2.95;2.75;;;;;;;;;;4962279;28;20458;-74
2023/08/13 02:46:26;;;;;;;3.05;2.83;;;;;;;;;;4970465;28;20042;-75
2023/08/13 02:48:54;;;;;;;3.15;2.90;;;;;;;;;;4966866;28;20042;-76
2023/08/13 02:51:19;;;;;;;4.35;3.72;;;;;;;;;;4979656;28;20103;-76
2023/08/13 02:53:45;;;;;;;2.88;2.63;;;;;;;;;;4967309;28;20524;-75
2023/08/13 02:56:10;;;;;;;3.13;2.90;;;;;;;;;;4980679;28;20018;-76
2023/08/13 02:58:36;;;;;;;3.72;3.42;;;;;;;;;;4964474;28;20026;-75
2023/08/13 03:01:02;;;;;;;3.28;2.72;;;;;;;;;;4969051;28;20083;-75
2023/08/13 03:03:27;;;;;;;3.53;3.22;;;;;;;;;;4966860;28;20078;-76
2023/08/13 03:05:53;;;;;;;3.72;3.42;;;;;;;;;;4965844;28;20046;-76
2023/08/13 03:08:19;;;;;;;3.97;3.60;;;;;;;;;;4955646;28;21278;-76
2023/08/13 03:10:44;;;;;;;3.65;3.35;;;;;;;;;;4967602;28;20561;-75
2023/08/13 03:13:09;;;;;;;7.20;4.15;;;;;;;;;;4961907;28;20031;-76
2023/08/13 03:15:35;;;;;;;5.43;4.15;;;;;;;;;;4968130;28;20059;-76
2023/08/13 03:18:00;;;;;;;5.13;4.55;;;;;;;;;;4967290;28;20482;-75
2023/08/13 03:20:26;;;;;;;4.43;4.03;;;;;;;;;;4968003;28;20023;-75
2023/08/13 03:22:51;;;;;;;3.60;3.30;;;;;;;;;;4970185;28;20058;-76
2023/08/13 03:25:16;;;;;;;3.65;2.70;;;;;;;;;;4962898;28;20400;-75
2023/08/13 03:27:42;;;;;;;4.25;3.67;;;;;;;;;;4961841;28;20026;-75
2023/08/13 03:30:08;;;;;;;3.80;3.25;;;;;;;;;;4968131;28;20031;-75
2023/08/13 03:32:33;;;;;;;4.75;3.75;;;;;;;;;;4966368;28;20129;-75
2023/08/13 03:34:58;;;;;;;3.40;3.10;;;;;;;;;;4971328;28;20023;-76
2023/08/13 03:37:24;;;;;;;3.97;3.20;;;;;;;;;;4968841;28;20027;-75
2023/08/13 03:39:49;;;;;;;4.70;4.18;;;;;;;;;;4968449;28;20023;-76
2023/08/13 03:42:15;;;;;;;3.72;3.35;;;;;;;;;;4971422;28;20410;-76
2023/08/13 03:44:41;;;;;;;4.15;3.20;;;;;;;;;;4965842;28;20031;-75
2023/08/13 03:47:06;;;;;;;3.53;3.22;;;;;;;;;;4964649;28;20026;-76
2023/08/13 03:49:33;;;;;;;4.10;3.70;;;;;;;;;;4971125;28;20033;-75
2023/08/13 03:51:58;;;;;;;4.65;3.75;;;;;;;;;;4965393;28;20110;-76
2023/08/13 03:54:24;;;;;;;3.50;3.20;;;;;;;;;;4967730;28;20130;-76
2023/08/13 03:56:50;;;;;;;2.90;2.70;;;;;;;;;;4970301;28;20057;-75
2023/08/13 03:59:15;;;;;;;4.00;3.47;;;;;;;;;;4972719;28;20054;-75
2023/08/13 04:01:41;;;;;;;5.88;3.70;;;;;;;;;;4971846;28;20414;-76
2023/08/13 04:04:06;;;;;;;4.03;3.63;;;;;;;;;;4984322;28;20030;-76
2023/08/13 04:06:32;;;;;;;5.63;4.78;;;;;;;;;;4967282;28;20027;-76
2023/08/13 04:08:57;;;;;;;5.38;4.32;;;;;;;;;;4967198;28;20119;-76
2023/08/13 04:11:23;;;;;;;4.35;3.95;;;;;;;;;;4969254;28;20388;-76
2023/08/13 04:13:48;;;;;;;3.10;2.90;;;;;;;;;;4965571;28;20037;-76
2023/08/13 04:16:13;;;;;;;2.70;2.42;;;;;;;;;;4971702;28;20042;-76
2023/08/13 04:18:39;;;;;;;3.38;3.08;;;;;;;;;;4969926;28;20019;-76
2023/08/13 04:21:04;;;;;;;3.10;2.80;;;;;;;;;;4964477;28;20125;-75
2023/08/13 04:23:29;;;;;;;4.80;3.50;;;;;;;;;;4966698;28;20031;-75
2023/08/13 04:25:55;;;;;;;7.18;4.63;;;;;;;;;;4970415;28;20022;-76
2023/08/13 04:28:20;;;;;;;5.10;4.30;;;;;;;;;;4980850;28;20053;-75
2023/08/13 04:30:45;;;;;;;4.20;3.70;;;;;;;;;;4971752;28;20073;-75
2023/08/13 04:33:11;;;;;;;3.72;3.30;;;;;;;;;;4965175;28;20015;-75
2023/08/13 04:35:36;;;;;;;3.40;3.10;;;;;;;;;;4969098;28;20041;-75
2023/08/13 04:38:02;;;;;;;5.40;3.53;;;;;;;;;;4969956;28;20019;-75
2023/08/13 04:40:27;;;;;;;3.58;3.28;;;;;;;;;;4967652;28;20397;-74
2023/08/13 04:42:52;;;;;;;3.47;3.17;;;;;;;;;;4967412;28;20033;-74
2023/08/13 04:45:18;;;;;;;5.13;3.53;;;;;;;;;;4971430;28;20015;-75
2023/08/13 04:47:43;;;;;;;4.45;4.05;;;;;;;;;;4966788;28;20015;-75
2023/08/13 04:50:09;;;;;;;5.55;3.60;;;;;;;;;;4984594;28;20033;-75
2023/08/13 04:52:34;;;;;;;4.30;3.90;;;;;;;;;;4967904;28;20053;-74
2023/08/13 04:55:00;;;;;;;3.85;3.45;;;;;;;;;;4964356;28;20019;-75
2023/08/13 04:57:26;;;;;;;2.50;2.30;;;;;;;;;;4967680;28;20085;-74
2023/08/13 04:59:51;;;;;;;2.90;2.60;;;;;;;;;;4962088;28;20023;-75
2023/08/13 05:02:17;;;;;;;2.85;2.45;;;;;;;;;;4966606;28;20047;-75
2023/08/13 05:04:42;;;;;;;3.45;3.15;;;;;;;;;;4966602;28;20435;-75
2023/08/13 05:07:08;;;;;;;6.22;3.03;;;;;;;;;;4968926;28;20026;-74
2023/08/13 05:09:34;;;;;;;4.40;3.03;;;;;;;;;;4982553;28;20054;-75
2023/08/13 05:12:00;;;;;;;2.67;2.47;;;;;;;;;;4966910;28;20046;-75
2023/08/13 05:14:25;;;;;;;5.63;3.75;;;;;;;;;;4968924;28;20462;-74
2023/08/13 05:16:51;;;;;;;4.10;3.70;;;;;;;;;;4967549;28;20081;-74
2023/08/13 05:19:16;;;;;;;5.03;4.07;;;;;;;;;;4965747;28;20472;-74
2023/08/13 05:21:42;;;;;;;4.82;4.05;;;;;;;;;;4964074;28;20510;-73
2023/08/13 05:24:07;;;;;;;4.40;3.95;;;;;;;;;;4967886;28;20062;-73
2023/08/13 05:26:32;;;;;;;4.15;3.42;;;;;;;;;;4963348;28;20030;-73
2023/08/13 05:28:58;;;;;;;4.75;3.88;;;;;;;;;;4966498;28;20023;-73
2023/08/13 05:31:23;;;;;;;5.18;4.55;;;;;;;;;;4969115;28;20053;-73
2023/08/13 05:33:49;;;;;;;5.97;5.47;;;;;;;;;;4978452;28;20023;-73
2023/08/13 05:36:14;;;;;;;4.10;3.22;;;;;;;;;;4964755;28;20089;-73
2023/08/13 05:38:39;;;;;;;4.80;4.30;;;;;;;;;;4967129;28;20102;-73
2023/08/13 05:41:05;;;;;;;4.25;3.85;;;;;;;;;;4965703;28;20030;-74
2023/08/13 05:43:31;;;;;;;4.05;3.28;;;;;;;;;;4965835;28;20078;-73
2023/08/13 05:45:56;;;;;;;3.40;3.10;;;;;;;;;;4968078;28;20022;-73
2023/08/13 05:48:22;;;;;;;4.20;3.80;;;;;;;;;;4965853;28;20070;-73
2023/08/13 05:50:47;;;;;;;4.05;3.30;;;;;;;;;;4963764;28;20577;-74
2023/08/13 05:53:12;;;;;;;4.13;3.72;;;;;;;;;;4965495;28;20023;-74
2023/08/13 05:55:38;;;;;;;4.78;4.38;;;;;;;;;;4964869;28;20018;-73
2023/08/13 05:58:05;;;;;;;4.65;4.25;;;;;;;;;;4963676;28;20479;-74
2023/08/13 06:00:31;;;;;;;4.60;3.42;;;;;;;;;;4965690;28;20030;-75
2023/08/13 06:02:57;;;;;;;4.35;3.92;;;;;;;;;;4962440;28;20026;-76
2023/08/13 06:05:22;;;;;;;4.65;3.20;;;;;;;;;;4975384;28;20177;-75
2023/08/13 06:07:48;;;;;;;3.70;3.40;;;;;;;;;;4962962;28;20038;-74
2023/08/13 06:10:13;;;;;;;5.38;4.60;;;;;;;;;;4963875;28;20054;-75
2023/08/13 06:12:38;;;;;;;6.00;5.38;;;;;;;;;;4974322;28;20030;-74
2023/08/13 06:15:04;;;;;;;5.43;4.90;;;;;;;;;;4962925;28;20038;-74
2023/08/13 06:17:30;;;;;;;6.25;5.53;;;;;;;;;;4962075;28;20037;-73
2023/08/13 06:19:55;;;;;;;6.72;5.68;;;;;;;;;;4963633;28;20015;-73
2023/08/13 06:22:21;;;;;;;5.82;4.97;;;;;;;;;;4963580;28;20595;-74
2023/08/13 06:24:47;;;;;;;6.05;5.32;;;;;;;;;;4962307;28;20026;-74
2023/08/13 06:27:12;;;;;;;6.95;5.90;;;;;;;;;;4964047;28;20026;-74
2023/08/13 06:29:38;;;;;;;5.95;5.15;;;;;;;;;;4963572;28;20033;-73
2023/08/13 06:32:03;;;;;;;6.65;5.10;;;;;;;;;;4965543;28;20026;-73
2023/08/13 06:34:29;;;;;;;6.68;5.18;;;;;;;;;;4974240;28;20043;-72
2023/08/13 06:36:54;;;;;;;6.07;5.00;;;;;;;;;;4958303;28;20023;-72
2023/08/13 06:39:21;;;;;;;5.75;5.25;;;;;;;;;;4963124;28;20014;-73
2023/08/13 06:41:47;;;;;;;5.28;4.50;;;;;;;;;;4964705;28;20174;-73
2023/08/13 06:44:20;;;;;;;6.22;5.32;;;;;;;;;;4962604;28;20471;-72
2023/08/13 06:46:46;;;;;;;5.40;4.20;;;;;;;;;;4963406;28;20611;-72
2023/08/13 06:49:12;;;;;;;7.40;6.07;;;;;;;;;;4962642;28;20510;-73
2023/08/13 06:51:38;;;;;;;9.13;5.85;;;;;;;;;;4974235;28;20129;-73
2023/08/13 06:54:03;;;;;;;5.55;4.82;;;;;;;;;;4954940;28;20039;-74
2023/08/13 06:56:30;;;;;;;7.35;6.40;;;;;;;;;;4962938;28;20038;-72
2023/08/13 06:58:56;;;;;;;7.13;6.43;;;;;;;;;;4936991;28;20100;-72
2023/08/13 07:01:21;;;;;;;6.47;5.78;;;;;;;;;;4961900;28;20042;-73
2023/08/13 07:03:47;;;;;;;6.57;5.40;;;;;;;;;;4964483;28;20092;-72
2023/08/13 07:06:12;;;;;;;10.10;6.90;;;;;;;;;;4955043;28;20075;-73
2023/08/13 07:08:37;;;;;;;7.22;6.25;;;;;;;;;;4939479;28;20065;-71
2023/08/13 07:11:03;;;;;;;7.88;5.20;;;;;;;;;;4941031;28;20043;-72
2023/08/13 07:13:28;;;;;;;4.88;3.78;;;;;;;;;;4950578;28;20772;-72
2023/08/13 07:15:54;;;;;;;8.38;6.20;;;;;;;;;;4959407;28;20050;-73
2023/08/13 07:18:19;;;;;;;6.85;6.10;;;;;;;;;;4945044;28;20065;-72
2023/08/13 07:20:44;;;;;;;8.57;5.45;;;;;;;;;;4941020;28;20407;-72
2023/08/13 07:23:10;;;;;;;6.63;5.80;;;;;;;;;;4966165;28;20042;-72
2023/08/13 07:25:35;;;;;;;6.50;5.80;;;;;;;;;;4970354;28;20061;-73
2023/08/13 07:28:01;;;;;;;6.18;5.57;;;;;;;;;;4957252;28;20042;-74
2023/08/13 07:30:26;;;;;;;3.75;2.97;;;;;;;;;;4968314;28;20406;-73
2023/08/13 07:32:52;;;;;;;2.95;2.70;;;;;;;;;;4965260;28;20050;-73
2023/08/13 07:35:18;;;;;;;3.92;3.63;;;;;;;;;;4953711;28;20054;-73
2023/08/13 07:37:43;;;;;;;6.63;5.50;;;;;;;;;;4966942;28;20645;-72
2023/08/13 07:40:11;;;;;;;6.53;5.93;;;;;;;;;;4965862;28;20133;-73
2023/08/13 07:42:37;;;;;;;5.30;4.80;;;;;;;;;;4950932;28;20048;-73
2023/08/13 07:45:05;;;;;;;3.33;3.03;;;;;;;;;;4949873;28;20137;-73
2023/08/13 07:47:31;;;;;;;6.57;5.47;;;;;;;;;;4965672;28;20130;-73
2023/08/13 07:49:57;;;;;;;5.13;4.63;;;;;;;;;;4959543;28;20126;-73
2023/08/13 07:52:22;;;;;;;5.40;4.78;;;;;;;;;;4966520;28;20038;-73
2023/08/13 07:54:47;;;;;;;4.88;4.38;;;;;;;;;;4950686;28;20047;-73
2023/08/13 07:57:13;;;;;;;6.22;4.82;;;;;;;;;;4966426;28;20499;-73
2023/08/13 07:59:38;;;;;;;3.72;3.42;;;;;;;;;;4964337;28;20046;-73
2023/08/13 08:02:04;;;;;;;5.53;4.88;;;;;;;;;;4969149;28;20631;-73
2023/08/13 08:04:30;;;;;;;5.13;4.63;;;;;;;;;;4952483;28;20042;-73
2023/08/13 08:06:55;;;;;;;6.03;4.50;;;;;;;;;;4969292;28;20534;-73
2023/08/13 08:09:20;;;;;;;3.72;3.42;;;;;;;;;;4932671;28;20039;-73
2023/08/13 08:11:47;;;;;;;4.50;3.90;;;;;;;;;;4957058;28;20038;-72
2023/08/13 08:14:12;;;;;;;4.28;3.88;;;;;;;;;;4945831;28;20041;-73
2023/08/13 08:16:37;;;;;;;3.47;3.10;;;;;;;;;;4943785;28;20051;-73
2023/08/13 08:19:04;;;;;;;5.30;4.60;;;;;;;;;;4955409;28;20112;-73
2023/08/13 08:21:31;;;;;;;3.88;3.42;;;;;;;;;;4963394;28;20049;-73
2023/08/13 08:23:56;;;;;;;2.53;2.33;;;;;;;;;;4959784;28;20390;-73
2023/08/13 08:26:22;;;;;;;4.00;3.65;;;;;;;;;;4974500;28;20050;-73
2023/08/13 08:28:47;;;;;;;4.00;3.70;;;;;;;;;;4973157;28;20045;-73
2023/08/13 08:31:12;;;;;;;3.97;3.58;;;;;;;;;;4963150;28;20029;-73
2023/08/13 08:33:38;;;;;;;4.43;3.92;;;;;;;;;;4966945;28;20061;-73
2023/08/13 08:36:03;;;;;;;3.75;3.42;;;;;;;;;;4964670;28;20074;-73
2023/08/13 08:38:29;;;;;;;4.55;3.78;;;;;;;;;;4949864;28;20042;-73
2023/08/13 08:40:56;;;;;;;4.00;3.63;;;;;;;;;;4959620;28;20074;-73
2023/08/13 08:43:23;;;;;;;3.80;3.40;;;;;;;;;;4969813;28;20042;-73
2023/08/13 08:45:50;;;;;;;3.42;3.13;;;;;;;;;;4953862;28;20070;-73
2023/08/13 08:48:18;;;;;;;2.75;2.55;;;;;;;;;;4959326;28;20039;-72
2023/08/13 08:50:44;;;;;;;5.07;3.20;;;;;;;;;;4960834;28;20121;-73
2023/08/13 08:53:10;;;;;;;2.85;2.55;;;;;;;;;;4972217;28;20481;-73
2023/08/13 08:55:36;;;;;;;3.08;2.75;;;;;;;;;;4973230;28;20050;-73
2023/08/13 08:58:02;;;;;;;3.25;2.95;;;;;;;;;;4963579;28;20125;-73
2023/08/13 09:00:27;;;;;;;3.00;2.70;;;;;;;;;;4950576;28;20136;-73
2023/08/13 09:02:53;;;;;;;3.05;2.47;;;;;;;;;;4970757;28;20091;-73
2023/08/13 09:05:20;;;;;;;2.40;2.20;;;;;;;;;;4961674;28;20053;-73
2023/08/13 09:07:45;;;;;;;1.70;1.60;;;;;;;;;;4960097;28;20605;-73
2023/08/13 09:10:11;;;;;;;2.10;2.00;;;;;;;;;;4967670;28;20042;-73
2023/08/13 09:12:38;;;;;;;2.72;1.90;;;;;;;;;;4956039;28;20141;-73
2023/08/13 09:15:12;;;;;;;1.88;1.77;;;;;;;;;;4953960;28;20709;-73
2023/08/13 09:17:38;;;;;;;1.67;1.58;;;;;;;;;;4963622;28;20061;-73
2023/08/13 09:20:30;;;;;;;2.30;1.80;;;;;;;;;;4963377;28;20038;-73
2023/08/13 09:22:59;;;;;;;2.20;2.00;;;;;;;;;;4963373;28;20042;-73
2023/08/13 09:25:24;;;;;;;1.60;1.50;;;;;;;;;;4940679;28;20157;-75
2023/08/13 09:27:50;;;;;;;3.75;1.90;;;;;;;;;;4969258;28;20502;-73
2023/08/13 09:30:30;;;;;;;8.20;1.73;;;;;;;;;;4964379;28;20041;-72
2023/08/13 09:32:57;;;;;;;1.50;1.40;;;;;;;;;;4943227;28;20556;-73
2023/08/13 09:35:23;;;;;;;1.55;1.40;;;;;;;;;;4955098;28;20046;-73
2023/08/13 09:37:48;;;;;;;1.35;1.25;;;;;;;;;;4958884;28;20034;-73
2023/08/13 09:40:13;;;;;;;1.98;1.42;;;;;;;;;;4972916;28;20038;-73
2023/08/13 09:42:42;;;;;;;1.73;1.50;;;;;;;;;;4957365;28;20125;-73
2023/08/13 09:45:10;;;;;;;1.30;1.15;;;;;;;;;;4961078;28;20050;-73
2023/08/13 09:47:39;;;;;;;1.92;1.20;;;;;;;;;;4968990;28;20636;-73
2023/08/13 09:50:05;;;;;;;3.00;1.40;;;;;;;;;;4958746;28;20046;-73
2023/08/13 09:52:32;;;;;;;1.38;1.20;;;;;;;;;;4971691;28;20502;-73
2023/08/13 09:55:23;;;;;;;1.20;1.10;;;;;;;;;;4947172;28;20197;-73
2023/08/13 09:57:50;;;;;;;1.58;1.20;;;;;;;;;;4958611;28;20038;-73
2023/08/13 10:00:16;;;;;;;1.67;1.10;;;;;;;;;;4956412;28;20035;-73
2023/08/13 10:02:43;;;;;;;1.33;1.20;;;;;;;;;;4952968;28;20092;-73
2023/08/13 10:05:09;;;;;;;1.73;1.30;;;;;;;;;;4971798;28;20045;-74
2023/08/13 10:07:36;;;;;;;1.20;1.10;;;;;;;;;;4960727;28;20041;-73
2023/08/13 10:10:03;;;;;;;2.05;1.25;;;;;;;;;;4969036;28;20039;-74
2023/08/13 10:12:30;;;;;;;1.80;1.40;;;;;;;;;;4971556;28;20045;-73
2023/08/13 10:14:55;;;;;;;1.30;1.13;;;;;;;;;;4950835;28;20042;-73
2023/08/13 10:17:26;;;;;;;1.27;1.10;;;;;;;;;;4972142;28;20045;-73
2023/08/13 10:19:54;;;;;;;1.20;1.10;;;;;;;;;;4954615;28;20041;-73
2023/08/13 10:22:35;;;;;;;1.30;1.20;;;;;;;;;;4965593;28;20046;-73
2023/08/13 10:25:06;;;;;;;;;;;;;;;;;;4973174;28;20096;-73
2023/08/13 10:27:35;;;;;;;1.45;1.35;;;;;;;;;;4958749;28;19978;-73
2023/08/13 10:30:09;;;;;;;2.28;1.40;;;;;;;;;;4972824;28;20065;-73
2023/08/13 10:32:48;;;;;;;1.40;1.30;;;;;;;;;;4938285;28;20044;-73
2023/08/13 10:35:21;;;;;;;2.03;1.17;;;;;;;;;;4973046;28;20042;-73
2023/08/13 10:37:56;;;;;;;1.63;1.35;;;;;;;;;;4956858;28;20099;-73
2023/08/13 10:40:22;;;;;;;1.45;1.20;;;;;;;;;;4971271;28;20038;-73
2023/08/13 10:42:49;;;;;;;1.13;1.13;;;;;;;;;;4958564;28;20039;-73
2023/08/13 10:45:25;;;;;;;1.45;1.30;;;;;;;;;;4971812;28;20133;-73
2023/08/13 10:47:55;;;;;;;1.52;1.25;;;;;;;;;;4962957;28;20125;-74
2023/08/13 10:50:30;;;;;;;1.33;1.20;;;;;;;;;;4954931;28;20046;-75
2023/08/13 10:53:09;;;;;;;1.50;1.25;;;;;;;;;;4971451;28;20074;-75
2023/08/13 10:55:40;;;;;;;1.45;1.00;;;;;;;;;;4960718;28;20039;-73
2023/08/13 10:58:06;;;;;;;1.40;1.20;;;;;;;;;;4978792;28;20526;-76
2023/08/13 11:00:42;;;;;;;1.50;1.10;;;;;;;;;;4953033;28;20049;-74
2023/08/13 11:03:18;;;;;;;1.10;1.00;;;;;;;;;;4972871;28;20042;-72
2023/08/13 11:05:45;;;;;;;1.40;1.00;;;;;;;;;;4972596;28;20056;-73
2023/08/13 11:08:24;;;;;;;1.30;1.20;;;;;;;;;;4955178;28;20070;-71
2023/08/13 11:10:51;;;;;;;1.40;1.30;;;;;;;;;;4957516;28;20435;-74
2023/08/13 11:13:18;;;;;;;2.17;1.30;;;;;;;;;;4973151;28;20042;-74
2023/08/13 11:15:51;;;;;;;1.42;1.30;;;;;;;;;;4983099;28;20121;-72
2023/08/13 11:18:17;;;;;;;0.80;0.80;;;;;;;;;;4978386;28;20027;-73
2023/08/13 11:20:44;;;;;;;2.28;1.30;;;;;;;;;;4975794;28;20664;-72
2023/08/13 11:23:12;;;;;;;0.80;0.80;;;;;;;;;;4972893;28;20141;-74
2023/08/13 11:25:37;;;;;;;2.03;1.17;;;;;;;;;;4963205;28;20089;-74
2023/08/13 11:28:03;;;;;;;1.70;1.05;;;;;;;;;;4977917;28;20042;-73
2023/08/13 11:30:28;;;;;;;1.38;1.30;;;;;;;;;;4976667;28;20045;-73
2023/08/13 11:32:54;;;;;;;1.33;1.23;;;;;;;;;;4972415;28;20046;-73
2023/08/13 11:35:19;;;;;;;1.77;1.02;;;;;;;;;;4979531;28;20042;-73
2023/08/13 11:37:45;;;;;;;1.20;1.10;;;;;;;;;;4976154;28;20550;-73
2023/08/13 11:40:10;;;;;;;1.67;1.20;;;;;;;;;;4966901;28;20109;-73
2023/08/13 11:42:37;;;;;;;1.55;1.35;;;;;;;;;;4979285;28;20035;-73
2023/08/13 11:45:23;;;;;;;1.55;1.10;;;;;;;;;;4971194;28;20030;-73
2023/08/13 11:47:48;;;;;;;1.10;0.95;;;;;;;;;;4977999;28;20708;-73
2023/08/13 11:50:23;;;;;;;1.42;1.23;;;;;;;;;;4964640;28;20122;-73
2023/08/13 11:53:10;;;;;;;1.92;1.27;;;;;;;;;;4973595;28;20069;-73
2023/08/13 11:55:38;;;;;;;2.03;1.20;;;;;;;;;;4977106;28;20061;-73
2023/08/13 11:58:04;;;;;;;1.20;1.10;;;;;;;;;;4980743;28;20046;-73
2023/08/13 12:00:30;;;;;;;2.30;1.10;;;;;;;;;;4981810;28;21691;-73
2023/08/13 12:02:57;;;;;;;1.20;1.10;;;;;;;;;;4959578;28;20046;-73
2023/08/13 12:05:30;;;;;;;1.50;1.10;;;;;;;;;;4980365;28;20055;-74
2023/08/13 12:07:57;;;;;;;1.20;1.10;;;;;;;;;;4963749;28;20038;-74
2023/08/13 12:10:23;;;;;;;2.65;1.27;;;;;;;;;;4964164;28;20035;-73
2023/08/13 12:12:49;;;;;;;1.45;1.00;;;;;;;;;;4977409;28;20167;-74
2023/08/13 12:15:16;;;;;;;1.30;1.20;;;;;;;;;;4958841;28;20041;-74
2023/08/13 12:17:42;;;;;;;1.40;1.30;;;;;;;;;;4986907;28;20034;-73
2023/08/13 12:20:10;;;;;;;1.95;1.10;;;;;;;;;;4987690;28;20621;-73
2023/08/13 12:22:36;;;;;;;1.30;1.20;;;;;;;;;;4972404;28;20042;-74
2023/08/13 12:25:01;;;;;;;0.95;0.95;;;;;;;;;;4950521;28;20057;-73
2023/08/13 12:27:26;;;;;;;1.30;1.20;;;;;;;;;;4966457;28;20368;-74
2023/08/13 12:29:52;;;;;;;1.42;1.17;;;;;;;;;;4976059;28;20537;-74
2023/08/13 12:32:17;;;;;;;1.42;1.33;;;;;;;;;;4979713;28;20042;-74
2023/08/13 12:34:42;;;;;;;1.15;0.82;;;;;;;;;;4970291;28;20042;-74
2023/08/13 12:37:08;;;;;;;1.00;0.80;;;;;;;;;;4967636;28;20074;-73
2023/08/13 12:39:33;;;;;;;1.55;1.17;;;;;;;;;;4967825;28;20034;-73
2023/08/13 12:41:58;;;;;;;1.33;1.00;;;;;;;;;;4962097;28;20046;-74
2023/08/13 12:44:24;;;;;;;1.55;1.45;;;;;;;;;;4956080;28;20040;-74
2023/08/13 12:46:49;;;;;;;1.98;1.25;;;;;;;;;;4974117;28;20069;-73
2023/08/13 12:49:14;;;;;;;1.50;1.25;;;;;;;;;;4981128;28;20038;-73
2023/08/13 12:51:40;;;;;;;2.58;1.40;;;;;;;;;;4970936;28;20139;-74
2023/08/13 12:54:05;;;;;;;1.30;1.02;;;;;;;;;;4971103;28;20046;-74
2023/08/13 12:56:32;;;;;;;2.63;1.45;;;;;;;;;;4971225;28;20045;-74
2023/08/13 12:58:58;;;;;;;0.70;0.70;;;;;;;;;;4981364;28;20046;-73
2023/08/13 13:01:23;;;;;;;1.63;1.40;;;;;;;;;;4974176;28;20093;-73
2023/08/13 13:03:48;;;;;;;1.48;1.05;;;;;;;;;;4971494;28;20407;-74
2023/08/13 13:06:14;;;;;;;0.90;0.90;;;;;;;;;;4967384;28;20076;-74
2023/08/13 13:08:39;;;;;;;2.35;1.10;;;;;;;;;;4966682;28;20035;-73
2023/08/13 13:11:06;;;;;;;0.95;0.95;;;;;;;;;;4960065;28;20513;-73
2023/08/13 13:13:32;;;;;;;1.33;1.30;;;;;;;;;;4964873;28;20387;-74
2023/08/13 13:15:57;;;;;;;1.63;1.40;;;;;;;;;;4966817;28;21049;-74
2023/08/13 13:18:23;;;;;;;1.50;1.40;;;;;;;;;;4966545;28;20039;-74
2023/08/13 13:20:48;;;;;;;1.00;1.00;;;;;;;;;;4972395;28;20537;-73
2023/08/13 13:23:13;;;;;;;1.77;1.00;;;;;;;;;;4957574;28;20046;-74
2023/08/13 13:25:39;;;;;;;1.90;1.40;;;;;;;;;;4957722;28;20062;-73
2023/08/13 13:28:05;;;;;;;1.00;1.00;;;;;;;;;;4970127;28;20569;-74
2023/08/13 13:30:33;;;;;;;1.42;0.98;;;;;;;;;;4979858;28;20593;-73
2023/08/13 13:33:03;;;;;;;1.42;1.33;;;;;;;;;;4968500;28;20045;-74
2023/08/13 13:35:30;;;;;;;1.40;1.27;;;;;;;;;;4963608;28;20169;-74
2023/08/13 13:37:56;;;;;;;1.50;1.40;;;;;;;;;;4967848;28;20039;-73
2023/08/13 13:40:23;;;;;;;1.40;1.30;;;;;;;;;;4938999;28;20055;-74
2023/08/13 13:42:50;;;;;;;1.38;1.27;;;;;;;;;;4969030;28;20050;-73
2023/08/13 13:45:16;;;;;;;1.42;1.33;;;;;;;;;;4968451;28;20043;-73
2023/08/13 13:47:42;;;;;;;1.48;1.38;;;;;;;;;;4973774;28;20140;-74
2023/08/13 13:50:07;;;;;;;1.38;1.27;;;;;;;;;;4970673;28;20489;-74
2023/08/13 13:52:33;;;;;;;2.05;1.25;;;;;;;;;;4955383;28;20042;-74
2023/08/13 13:54:58;;;;;;;1.00;1.00;;;;;;;;;;4963927;28;20038;-74
2023/08/13 13:57:25;;;;;;;1.15;1.05;;;;;;;;;;4968481;28;20121;-73
2023/08/13 13:59:50;;;;;;;1.52;1.30;;;;;;;;;;4975217;28;20490;-74
2023/08/13 14:02:17;;;;;;;1.98;1.15;;;;;;;;;;4969923;28;20057;-74
2023/08/13 14:04:42;;;;;;;1.20;1.10;;;;;;;;;;4968009;28;20035;-74
2023/08/13 14:07:07;;;;;;;1.52;1.23;;;;;;;;;;4957466;28;20053;-73
2023/08/13 14:09:33;;;;;;;1.40;1.30;;;;;;;;;;4967066;28;20054;-74
2023/08/13 14:11:58;;;;;;;1.10;0.90;;;;;;;;;;4971020;28;20364;-74
2023/08/13 14:14:24;;;;;;;1.40;1.30;;;;;;;;;;4971697;28;20038;-74
2023/08/13 14:16:49;;;;;;;1.15;1.05;;;;;;;;;;4969378;28;20082;-74
2023/08/13 14:19:15;;;;;;;1.30;1.20;;;;;;;;;;4969510;28;20035;-74
2023/08/13 14:21:40;;;;;;;0.80;0.80;;;;;;;;;;4943466;28;20047;-74
2023/08/13 14:24:06;;;;;;;1.98;1.30;;;;;;;;;;4967694;28;20127;-74
2023/08/13 14:26:31;;;;;;;1.75;0.90;;;;;;;;;;4981058;28;20514;-74
2023/08/13 14:28:56;;;;;;;1.42;1.10;;;;;;;;;;4971875;28;20035;-74
2023/08/13 14:31:22;;;;;;;1.75;1.00;;;;;;;;;;4970507;28;20518;-74
2023/08/13 14:33:47;;;;;;;0.82;0.82;;;;;;;;;;4970259;28;20050;-74
2023/08/13 14:36:13;;;;;;;0.93;0.93;;;;;;;;;;4959464;28;20034;-74
2023/08/13 14:38:38;;;;;;;1.13;1.02;;;;;;;;;;4977593;28;20038;-73
2023/08/13 14:41:03;;;;;;;0.95;0.95;;;;;;;;;;4970859;28;20487;-74